Time;durP1;ratioP1;P1;durP2;ratioP2;P2;SDS_P1;SDS_P2;PMS_P1;PMS_P2;Temp;Humidity;BMP_temperature;BMP_pressure;BME280_temperature;BME280_humidity;BME280_pressure;Samples;Min_cycle;Max_cycle;Signal;HPM_P1;HPM_P2
2021/12/10 00:01:33;;;;;;;;;2.50;1.00;;;;;13.05;100.00;99029.75;5041983;28;45372;-86
2021/12/10 00:04:00;;;;;;;;;2.25;1.50;;;;;13.56;100.00;99017.31;5041772;28;45320;-85
2021/12/10 00:06:38;;;;;;;;;1.00;1.00;;;;;13.29;100.00;99013.94;5042212;28;45322;-85
2021/12/10 00:09:27;;;;;;;;;6.00;2.50;;;;;13.22;100.00;98998.84;5057119;28;45651;-84
2021/12/10 00:11:58;;;;;;;;;4.50;1.00;;;;;13.11;100.00;98979.56;5055377;28;45459;-84
2021/12/10 00:14:27;;;;;;;;;1.00;1.00;;;;;13.35;100.00;98957.63;5043033;28;45589;-84
2021/12/10 00:16:53;;;;;;;;;0.00;0.00;;;;;13.99;100.00;98955.94;5055169;28;45771;-84
2021/12/10 00:19:33;;;;;;;;;1.00;1.00;;;;;20.48;100.00;98935.66;5076893;27;45295;-84
2021/12/10 00:22:02;;;;;;;;;2.50;1.25;;;;;45.04;100.00;98910.63;5065556;28;45517;-84
2021/12/10 00:24:30;;;;;;;;;6.75;1.00;;;;;22.51;100.00;98916.41;5041401;28;45646;-84
2021/12/10 00:26:58;;;;;;;;;2.25;1.00;;;;;34.09;100.00;98872.81;5058710;27;45691;-84
2021/12/10 00:29:24;;;;;;;;;1.75;1.00;;;;;29.52;100.00;98850.81;5061560;28;45477;-83
2021/12/10 00:31:56;;;;;;;;;0.50;0.50;;;;;19.32;100.00;98851.44;5060529;28;45474;-82
2021/12/10 00:34:42;;;;;;;;;2.00;1.00;;;;;17.49;100.00;98845.13;5061171;28;45545;-81
2021/12/10 00:37:11;;;;;;;;;1.00;1.00;;;;;17.54;100.00;98834.72;5071359;28;45557;-82
2021/12/10 00:39:41;;;;;;;;;1.00;1.00;;;;;17.20;100.00;98830.97;5066256;28;45343;-83
2021/12/10 00:42:10;;;;;;;;;1.50;0.75;;;;;-143.39;100.00;63593.47;5069954;28;45263;-82
2021/12/10 00:44:36;;;;;;;;;5.00;1.00;;;;;-143.39;100.00;63593.47;5097008;27;28943;-82
2021/12/10 00:47:02;;;;;;;;;1.00;1.00;;;;;17.19;100.00;63593.47;3907902;28;23510648;-82
2021/12/10 00:49:28;;;;;;;;;0.00;0.00;;;;;-143.39;100.00;63593.47;5097650;28;8859;-83
2021/12/10 00:51:54;;;;;;;;;1.25;0.25;;;;;-143.39;100.00;63593.47;5098016;28;8770;-83
2021/12/10 00:54:20;;;;;;;;;0.50;0.50;;;;;-143.39;100.00;63593.47;5097503;28;8786;-84
2021/12/10 00:56:46;;;;;;;;;0.25;0.00;;;;;-143.39;100.00;63593.47;5091645;28;8780;-83
2021/12/10 00:59:13;;;;;;;;;1.25;1.00;;;;;-143.39;100.00;63593.47;5097600;28;8776;-82
2021/12/10 01:01:41;;;;;;;;;3.00;1.00;;;;;-143.39;100.00;63593.47;5097910;28;8777;-83
2021/12/10 01:04:13;;;;;;;;;1.75;1.75;;;;;-143.39;100.00;63593.47;5097452;28;8797;-83
2021/12/10 01:06:41;;;;;;;;;5.75;2.00;;;;;-143.39;100.00;63593.47;5098086;28;8782;-82
2021/12/10 01:09:11;;;;;;;;;2.75;1.00;;;;;-143.39;100.00;63593.47;5097290;28;8840;-82
2021/12/10 01:11:48;;;;;;;;;2.00;1.00;;;;;-143.39;100.00;63593.47;5098042;28;8889;-81
2021/12/10 01:14:24;;;;;;;;;3.25;1.00;;;;;-143.39;100.00;63593.47;5092350;28;8879;-82
2021/12/10 01:25:25;;;;;;;;;0.00;0.00;;;;;-143.39;100.00;63593.47;5097338;28;8739;-81
2021/12/10 01:27:50;;;;;;;;;2.50;1.00;;;;;-143.39;100.00;63593.47;5084549;28;8782;-81
2021/12/10 01:30:24;;;;;;;;;6.75;2.00;;;;;-143.39;100.00;63593.47;5083501;28;9555;-82
2021/12/10 01:32:58;;;;;;;;;1.00;0.50;;;;;-143.39;100.00;63593.47;5077361;28;8827;-82
2021/12/10 01:35:28;;;;;;;;;0.75;0.75;;;;;-143.39;100.00;63593.47;5077164;28;9768;-82
2021/12/10 01:37:56;;;;;;;;;0.00;0.00;;;;;-143.39;100.00;63593.47;5093580;28;8798;-82
2021/12/10 01:40:24;;;;;;;;;0.00;0.00;;;;;-143.39;100.00;63593.47;5096981;28;8778;-82
2021/12/10 01:42:53;;;;;;;;;1.50;0.00;;;;;-143.39;100.00;63593.47;5097141;28;8805;-82
2021/12/10 01:45:30;;;;;;;;;2.00;0.00;;;;;-143.39;100.00;63593.47;5097472;28;8790;-82
2021/12/10 01:48:07;;;;;;;;;2.00;0.75;;;;;-143.39;100.00;63593.47;5097208;28;8920;-82
2021/12/10 01:50:34;;;;;;;;;0.25;0.25;;;;;-143.39;100.00;63593.47;5097147;28;8786;-82
2021/12/10 01:53:03;;;;;;;;;2.00;0.50;;;;;-143.39;100.00;63593.47;5097040;28;8826;-82
2021/12/10 01:55:31;;;;;;;;;0.00;0.00;;;;;-143.39;100.00;63593.47;5095738;28;9543;-82
2021/12/10 01:57:58;;;;;;;;;6.25;3.25;;;;;-143.39;100.00;63593.47;5091909;28;8832;-82
2021/12/10 02:00:29;;;;;;;;;0.50;0.50;;;;;-143.39;100.00;63593.47;5096709;28;8898;-82
2021/12/10 02:02:55;;;;;;;;;0.25;0.25;;;;;-143.39;100.00;63593.47;5095829;28;8754;-82
2021/12/10 02:05:20;;;;;;;;;0.00;0.00;;;;;-143.39;100.00;63593.47;5096943;28;8790;-82
2021/12/10 02:07:47;;;;;;;;;0.00;0.00;;;;;-143.39;100.00;63593.47;5096919;28;8867;-82
2021/12/10 02:10:15;;;;;;;;;0.75;0.00;;;;;-143.39;100.00;63593.47;5096557;28;8810;-83
2021/12/10 02:12:40;;;;;;;;;0.00;0.00;;;;;-143.39;100.00;63593.47;5096852;28;8826;-83
2021/12/10 02:15:07;;;;;;;;;0.00;0.00;;;;;-143.39;100.00;63593.47;5092771;28;8802;-81
2021/12/10 02:17:38;;;;;;;;;0.00;0.00;;;;;-143.39;100.00;63593.47;5096515;28;8836;-81
2021/12/10 02:20:08;;;;;;;;;0.00;0.00;;;;;-143.39;100.00;63593.47;5096463;28;8912;-80
2021/12/10 02:22:34;;;;;;;;;0.00;0.00;;;;;-143.39;100.00;63593.47;5092026;28;9722;-80
2021/12/10 02:25:00;;;;;;;;;0.00;0.00;;;;;-143.39;100.00;63593.47;5075985;28;8809;-81
2021/12/10 02:27:26;;;;;;;;;0.00;0.00;;;;;-143.39;100.00;63593.47;5089649;28;8813;-81
2021/12/10 02:29:52;;;;;;;;;0.00;0.00;;;;;-143.39;100.00;63593.47;5096441;28;8836;-80
2021/12/10 02:32:17;;;;;;;;;1.00;0.00;;;;;-143.39;100.00;63593.47;5096560;28;8865;-80
2021/12/10 02:34:44;;;;;;;;;0.00;0.00;;;;;-143.39;100.00;63593.47;5096366;28;8833;-80
2021/12/10 02:37:10;;;;;;;;;0.00;0.00;;;;;-143.39;100.00;63593.47;5095695;28;8786;-80
2021/12/10 02:39:36;;;;;;;;;0.00;0.00;;;;;-143.39;100.00;63593.47;5095971;28;8827;-80
2021/12/10 02:42:02;;;;;;;;;1.00;0.75;;;;;-143.39;100.00;63593.47;5096043;28;8802;-80
2021/12/10 02:44:31;;;;;;;;;1.00;0.00;;;;;-143.39;100.00;63593.47;5096259;28;8822;-80
2021/12/10 02:46:57;;;;;;;;;0.00;0.00;;;;;-143.39;100.00;63593.47;5086828;28;8805;-81
2021/12/10 02:49:23;;;;;;;;;0.00;0.00;;;;;-143.39;100.00;63593.47;5095940;28;8938;-82
2021/12/10 02:51:49;;;;;;;;;2.00;0.00;;;;;-143.39;100.00;63593.47;5096127;28;9828;-82
2021/12/10 02:54:21;;;;;;;;;0.00;0.00;;;;;-143.39;100.00;63593.47;5095704;28;8794;-82
2021/12/10 02:56:47;;;;;;;;;0.00;0.00;;;;;-143.39;100.00;63593.47;5094448;28;8850;-82
2021/12/10 02:59:12;;;;;;;;;0.00;0.00;;;;;-143.39;100.00;63593.47;5096118;28;8806;-82
2021/12/10 03:01:44;;;;;;;;;0.75;0.75;;;;;-143.39;100.00;63593.47;5095974;28;8810;-82
2021/12/10 03:04:10;;;;;;;;;0.00;0.00;;;;;-143.39;100.00;63593.47;5095709;28;8765;-82
2021/12/10 03:06:43;;;;;;;;;1.00;1.00;;;;;-143.39;100.00;63593.47;5095771;28;8866;-82
2021/12/10 03:09:08;;;;;;;;;0.00;0.00;;;;;-143.39;100.00;63593.47;5095670;28;8818;-82
2021/12/10 03:11:37;;;;;;;;;1.00;0.00;;;;;-143.39;100.00;63593.47;5095999;28;8840;-82
2021/12/10 03:14:09;;;;;;;;;1.00;1.00;;;;;-143.39;100.00;63593.47;5095830;28;8790;-82
2021/12/10 03:16:36;;;;;;;;;1.00;1.00;;;;;-143.39;100.00;63593.47;5094537;28;8806;-82
2021/12/10 03:19:03;;;;;;;;;0.00;0.00;;;;;-143.39;100.00;63593.47;5095812;28;8838;-82
2021/12/10 03:21:28;;;;;;;;;2.75;0.00;;;;;-143.39;100.00;63593.47;5089427;28;8823;-82
2021/12/10 03:23:53;;;;;;;;;2.00;0.25;;;;;-143.39;100.00;63593.47;5073853;28;8828;-82
2021/12/10 03:26:21;;;;;;;;;0.50;0.25;;;;;-143.39;100.00;63593.47;5084851;28;8841;-82
2021/12/10 03:28:49;;;;;;;;;1.25;1.00;;;;;-143.39;100.00;63593.47;5095236;28;8930;-82
2021/12/10 03:31:15;;;;;;;;;0.00;0.00;;;;;-143.39;100.00;63593.47;5098986;28;8790;-81
2021/12/10 03:33:42;;;;;;;;;0.00;0.00;;;;;-143.39;100.00;63593.47;5099022;28;8798;-82
2021/12/10 03:36:08;;;;;;;;;1.00;0.00;;;;;-143.39;100.00;63593.47;5098145;28;8782;-82
2021/12/10 03:38:36;;;;;;;;;1.00;1.00;;;;;-143.39;100.00;63593.47;5089662;28;8857;-82
2021/12/10 03:41:04;;;;;;;;;1.00;0.50;;;;;-143.39;100.00;63593.47;5078809;28;8808;-82
2021/12/10 03:43:30;;;;;;;;;1.00;1.00;;;;;-143.39;100.00;63593.47;5078724;28;8800;-82
2021/12/10 03:45:58;;;;;;;;;0.00;0.00;;;;;-143.39;100.00;63593.47;5094147;28;8890;-81
2021/12/10 03:48:30;;;;;;;;;2.00;1.00;;;;;-143.39;100.00;63593.47;5078481;28;8862;-82
2021/12/10 03:50:56;;;;;;;;;4.00;0.00;;;;;-143.39;100.00;63593.47;5078774;28;8832;-82
2021/12/10 03:53:22;;;;;;;;;1.00;1.00;;;;;-143.39;100.00;63593.47;5078218;28;8851;-82
2021/12/10 03:55:48;;;;;;;;;0.00;0.00;;;;;-143.39;100.00;63593.47;5083057;28;8818;-82
2021/12/10 03:58:16;;;;;;;;;1.50;0.00;;;;;-143.39;100.00;63593.47;5098982;28;8837;-82
2021/12/10 04:00:46;;;;;;;;;3.00;0.25;;;;;-143.39;100.00;63593.47;5098738;28;8794;-82
2021/12/10 04:03:14;;;;;;;;;1.50;1.00;;;;;-143.39;100.00;63593.47;5098665;28;8926;-82
2021/12/10 04:05:40;;;;;;;;;1.00;1.00;;;;;-143.39;100.00;63593.47;5098888;28;8786;-82
2021/12/10 04:08:07;;;;;;;;;2.75;1.00;;;;;-143.39;100.00;63593.47;5114339;27;8887;-82
2021/12/10 04:10:33;;;;;;;;;2.00;1.00;;;;;-143.39;100.00;63593.47;5098670;28;8802;-82
2021/12/10 04:12:58;;;;;;;;;6.25;2.00;;;;;-143.39;100.00;63593.47;5097284;28;8812;-82
2021/12/10 04:15:24;;;;;;;;;4.50;0.75;;;;;-143.39;100.00;63593.47;5098597;28;8891;-82
2021/12/10 04:17:53;;;;;;;;;2.00;0.75;;;;;-143.39;100.00;63593.47;5114276;27;9635;-82
2021/12/10 04:20:20;;;;;;;;;2.25;2.00;;;;;-143.39;100.00;63593.47;5098312;28;8806;-82
2021/12/10 04:22:47;;;;;;;;;3.00;1.00;;;;;-143.39;100.00;63593.47;5085238;28;8836;-82
2021/12/10 04:25:17;;;;;;;;;5.00;1.00;;;;;-143.39;100.00;63593.47;5077922;28;8784;-82
2021/12/10 04:27:44;;;;;;;;;3.50;1.75;;;;;-143.39;100.00;63593.47;5093630;28;8930;-82
2021/12/10 04:30:12;;;;;;;;;3.00;1.25;;;;;-143.39;100.00;63593.47;5098102;28;8786;-82
2021/12/10 04:32:39;;;;;;;;;4.00;2.00;;;;;-143.39;100.00;63593.47;5098005;28;8790;-82
2021/12/10 04:35:05;;;;;;;;;4.50;2.25;;;;;-143.39;100.00;63593.47;5098221;28;8774;-82
2021/12/10 04:37:31;;;;;;;;;6.25;3.00;;;;;-143.39;100.00;63593.47;5097663;28;8906;-82
2021/12/10 04:39:56;;;;;;;;;2.00;2.00;;;;;-143.39;100.00;63593.47;5096545;28;8847;-82
2021/12/10 04:42:24;;;;;;;;;3.00;3.00;;;;;-143.39;100.00;63593.47;5098182;28;8809;-82
2021/12/10 04:44:55;;;;;;;;;1.00;1.00;;;;;-143.39;100.00;63593.47;5098277;28;8766;-82
2021/12/10 04:47:21;;;;;;;;;4.75;2.00;;;;;-143.39;100.00;63593.47;5113689;28;8774;-82
2021/12/10 04:49:47;;;;;;;;;3.00;2.25;;;;;-143.39;100.00;63593.47;5096460;28;8786;-83
2021/12/10 04:52:12;;;;;;;;;4.50;3.25;;;;;-143.39;100.00;63593.47;5097993;28;8855;-83
2021/12/10 04:54:38;;;;;;;;;3.50;1.00;;;;;-143.39;100.00;63593.47;5097970;28;8801;-83
2021/12/10 04:57:04;;;;;;;;;3.75;1.75;;;;;-143.39;100.00;63593.47;5095189;28;9540;-83
2021/12/10 04:59:32;;;;;;;;;5.75;2.25;;;;;-143.39;100.00;63593.47;5098026;28;8790;-83
2021/12/10 05:02:00;;;;;;;;;6.00;2.00;;;;;-143.39;100.00;63593.47;5098066;28;8810;-83
2021/12/10 05:04:28;;;;;;;;;6.25;3.00;;;;;-143.39;100.00;63593.47;5097685;28;8862;-83
2021/12/10 05:06:54;;;;;;;;;8.00;5.00;;;;;-143.39;100.00;63593.47;5097865;28;8762;-83
2021/12/10 05:09:21;;;;;;;;;6.00;2.50;;;;;-143.39;100.00;63593.47;5113173;27;8805;-83
2021/12/10 05:11:47;;;;;;;;;2.00;2.00;;;;;-143.39;100.00;63593.47;5113349;28;8798;-83
2021/12/10 05:14:13;;;;;;;;;3.00;3.00;;;;;-143.39;100.00;63593.47;5096283;28;8806;-83
2021/12/10 05:16:43;;;;;;;;;7.50;4.00;;;;;-143.39;100.00;63593.47;5096579;28;8817;-83
2021/12/10 05:19:10;;;;;;;;;7.00;2.25;;;;;-143.39;100.00;63593.47;5097560;28;8848;-83
2021/12/10 05:21:38;;;;;;;;;3.00;3.00;;;;;-143.39;100.00;63593.47;5103482;28;8847;-83
2021/12/10 05:24:07;;;;;;;;;6.50;3.00;;;;;-143.39;100.00;63593.47;5077149;28;8891;-83
2021/12/10 05:26:35;;;;;;;;;6.00;2.00;;;;;-143.39;100.00;63593.47;5087133;28;8846;-83
2021/12/10 05:29:00;;;;;;;;;6.50;2.00;;;;;-143.39;100.00;63593.47;5093385;28;8818;-83
2021/12/10 05:31:26;;;;;;;;;2.00;1.75;;;;;-143.39;100.00;63593.47;5097180;28;8907;-84
2021/12/10 05:33:52;;;;;;;;;2.50;2.25;;;;;-143.39;100.00;63593.47;5112938;28;8742;-84
2021/12/10 05:36:19;;;;;;;;;3.25;1.75;;;;;-143.39;100.00;63593.47;5096316;28;8798;-84
2021/12/10 05:38:45;;;;;;;;;4.50;2.50;;;;;-143.39;100.00;63593.47;5084328;28;8918;-84
2021/12/10 05:41:12;;;;;;;;;1.00;1.00;;;;;-143.39;100.00;63593.47;5097223;28;8809;-84
2021/12/10 05:43:39;;;;;;;;;3.75;2.00;;;;;-143.39;100.00;63593.47;5097362;28;9716;-84
2021/12/10 05:46:04;;;;;;;;;1.00;1.00;;;;;-143.39;100.00;63593.47;5112777;28;8809;-85
2021/12/10 05:48:30;;;;;;;;;6.00;2.00;;;;;-143.39;100.00;63593.47;5096032;28;8948;-84
2021/12/10 05:50:57;;;;;;;;;2.25;1.00;;;;;-143.39;100.00;63593.47;5094733;28;8871;-84
2021/12/10 05:53:23;;;;;;;;;5.25;1.00;;;;;-143.39;100.00;63593.47;5092376;28;8926;-84
2021/12/10 05:55:49;;;;;;;;;3.75;2.00;;;;;-143.39;100.00;63593.47;5095433;28;8809;-84
2021/12/10 05:58:14;;;;;;;;;1.25;1.25;;;;;-143.39;100.00;63593.47;5093434;28;8806;-84
2021/12/10 06:00:54;;;;;;;;;3.00;1.50;;;;;-143.39;100.00;63593.47;5095694;28;8907;-85
2021/12/10 06:03:22;;;;;;;;;1.25;1.00;;;;;-143.39;100.00;63593.47;5076527;28;8848;-85
2021/12/10 06:05:48;;;;;;;;;6.00;3.00;;;;;-143.39;100.00;63593.47;5089027;28;8887;-84
2021/12/10 06:08:16;;;;;;;;;8.00;2.25;;;;;-143.39;100.00;63593.47;5095902;28;8826;-85
2021/12/10 06:10:42;;;;;;;;;2.50;1.00;;;;;-143.39;100.00;63593.47;5112058;28;8916;-85
2021/12/10 06:13:09;;;;;;;;;2.00;1.00;;;;;-143.39;100.00;63593.47;5096571;28;8791;-85
2021/12/10 06:15:36;;;;;;;;;2.50;1.00;;;;;-143.39;100.00;63593.47;5091320;28;8815;-84
2021/12/10 06:18:02;;;;;;;;;0.00;0.00;;;;;-143.39;100.00;63593.47;5099489;28;8894;-84
2021/12/10 06:20:31;;;;;;;;;2.75;1.25;;;;;-143.39;100.00;63593.47;5096124;28;8849;-84
2021/12/10 06:22:59;;;;;;;;;1.00;1.00;;;;;-143.39;100.00;63593.47;5085002;28;8907;-83
2021/12/10 06:25:26;;;;;;;;;3.50;1.00;;;;;-143.39;100.00;63593.47;5096573;28;8801;-83
2021/12/10 06:27:51;;;;;;;;;2.50;1.25;;;;;-143.39;100.00;63593.47;5108492;27;8894;-83
2021/12/10 06:30:21;;;;;;;;;4.00;1.75;;;;;-143.39;100.00;63593.47;5086595;28;8809;-84
2021/12/10 06:32:48;;;;;;;;;8.00;1.00;;;;;-143.39;100.00;63593.47;5091448;28;9695;-84
2021/12/10 06:35:15;;;;;;;;;3.00;1.50;;;;;-143.39;100.00;63593.47;5090814;28;8789;-84
2021/12/10 06:37:42;;;;;;;;;3.75;2.25;;;;;-143.39;100.00;63593.47;5087984;28;8820;-84
2021/12/10 06:40:12;;;;;;;;;3.75;1.00;;;;;-143.39;100.00;63593.47;5090063;28;8774;-85
2021/12/10 06:42:38;;;;;;;;;5.00;1.75;;;;;-143.39;100.00;63593.47;5090044;28;8762;-85
2021/12/10 06:45:08;;;;;;;;;3.00;1.50;;;;;-143.39;100.00;63593.47;5081637;28;8784;-84
2021/12/10 06:47:34;;;;;;;;;1.25;1.00;;;;;-143.39;100.00;63593.47;5090554;28;8820;-84
2021/12/10 06:50:00;;;;;;;;;3.75;1.00;;;;;-143.39;100.00;63593.47;5086649;28;8947;-84
2021/12/10 06:52:25;;;;;;;;;1.50;1.00;;;;;-143.39;100.00;63593.47;5074045;28;9591;-84
2021/12/10 06:54:51;;;;;;;;;1.00;1.00;;;;;-143.39;100.00;63593.47;5103245;28;8817;-84
2021/12/10 06:57:17;;;;;;;;;5.00;2.00;;;;;-143.39;100.00;63593.47;5090240;28;8813;-83
2021/12/10 06:59:42;;;;;;;;;6.00;2.00;;;;;-143.39;100.00;63593.47;5091756;28;8793;-84
2021/12/10 07:02:08;;;;;;;;;4.00;1.50;;;;;-143.39;100.00;63593.47;5080096;28;8814;-84
2021/12/10 07:04:35;;;;;;;;;8.25;2.00;;;;;-143.39;100.00;63593.47;5095120;28;8818;-84
2021/12/10 07:07:02;;;;;;;;;4.50;1.00;;;;;-143.39;100.00;63593.47;5090583;28;8871;-84
2021/12/10 07:09:28;;;;;;;;;3.50;2.00;;;;;-143.39;100.00;63593.47;5087192;28;8899;-84
2021/12/10 07:11:54;;;;;;;;;4.75;1.00;;;;;-143.39;100.00;63593.47;5095204;28;8778;-84
2021/12/10 07:14:20;;;;;;;;;2.75;0.50;;;;;-143.39;100.00;63593.47;5098219;28;8907;-84
2021/12/10 07:16:48;;;;;;;;;2.00;1.00;;;;;-143.39;100.00;63593.47;5083143;28;8801;-84
2021/12/10 07:19:14;;;;;;;;;1.00;1.00;;;;;-143.39;100.00;63593.47;5079598;28;8742;-84
2021/12/10 07:21:40;;;;;;;;;2.00;1.00;;;;;-143.39;100.00;63593.47;5098335;28;8902;-84
2021/12/10 07:24:10;;;;;;;;;4.00;1.50;;;;;-143.39;100.00;63593.47;5095982;28;8821;-84
2021/12/10 07:26:37;;;;;;;;;3.00;1.00;;;;;-143.39;100.00;63593.47;5102832;28;8797;-84
2021/12/10 07:29:05;;;;;;;;;1.00;1.00;;;;;-143.39;100.00;63593.47;5088612;28;8817;-84
2021/12/10 07:31:31;;;;;;;;;2.00;2.00;;;;;-143.39;100.00;63593.47;5094099;28;8800;-83
2021/12/10 07:33:56;;;;;;;;;0.00;0.00;;;;;-143.39;100.00;63593.47;5098455;28;8887;-85
2021/12/10 07:36:23;;;;;;;;;0.50;0.50;;;;;-143.39;100.00;63593.47;5095110;28;8865;-84
2021/12/10 07:38:49;;;;;;;;;1.50;0.00;;;;;-143.39;100.00;63593.47;5095940;28;8821;-84
2021/12/10 07:41:15;;;;;;;;;0.00;0.00;;;;;-143.39;100.00;63593.47;5094183;28;8805;-85
2021/12/10 07:43:41;;;;;;;;;2.00;0.00;;;;;-143.39;100.00;63593.47;5085186;28;9695;-85
2021/12/10 07:46:06;;;;;;;;;1.50;1.50;;;;;-143.39;100.00;63593.47;5079558;28;8814;-81
2021/12/10 07:48:34;;;;;;;;;1.00;1.00;;;;;-143.39;100.00;63593.47;5097197;28;8972;-82
2021/12/10 07:51:10;;;;;;;;;0.50;0.50;;;;;-143.39;100.00;63593.47;5097208;28;8824;-85
2021/12/10 07:53:37;;;;;;;;;2.75;1.00;;;;;-143.39;100.00;63593.47;5098057;28;9879;-84
2021/12/10 07:56:06;;;;;;;;;0.50;0.50;;;;;-143.39;100.00;63593.47;5098919;28;8808;-85
2021/12/10 07:58:32;;;;;;;;;1.00;1.00;;;;;-143.39;100.00;63593.47;5095612;28;8910;-86
2021/12/10 08:00:59;;;;;;;;;1.75;1.75;;;;;-143.39;100.00;63593.47;5084430;28;8768;-86
2021/12/10 08:03:25;;;;;;;;;0.00;0.00;;;;;-143.39;100.00;63593.47;5086302;28;8817;-87
2021/12/10 08:05:51;;;;;;;;;4.75;1.00;;;;;-143.39;100.00;63593.47;5097488;28;8813;-87
2021/12/10 08:08:17;;;;;;;;;0.75;0.00;;;;;-143.39;100.00;63593.47;5088550;28;8824;-88
2021/12/10 08:10:46;;;;;;;;;3.25;0.25;;;;;-143.39;100.00;63593.47;5112591;28;8813;-87
2021/12/10 08:13:12;;;;;;;;;2.25;0.00;;;;;-143.39;100.00;63593.47;5094069;28;8747;-87
2021/12/10 08:15:38;;;;;;;;;1.00;1.00;;;;;-143.39;100.00;63593.47;5088609;28;8792;-87
2021/12/10 08:18:04;;;;;;;;;1.25;1.25;;;;;-143.39;100.00;63593.47;5108242;28;9654;-85
2021/12/10 08:20:30;;;;;;;;;1.00;1.00;;;;;-143.39;100.00;63593.47;5097018;28;8789;-86
2021/12/10 08:22:56;;;;;;;;;1.50;0.50;;;;;-143.39;100.00;63593.47;5088613;28;8864;-85
2021/12/10 08:25:24;;;;;;;;;2.00;1.00;;;;;-143.39;100.00;63593.47;5087134;28;8843;-86
2021/12/10 08:27:50;;;;;;;;;1.00;1.00;;;;;-143.39;100.00;63593.47;5092617;28;8814;-86
2021/12/10 08:30:19;;;;;;;;;2.50;1.00;;;;;-143.39;100.00;63593.47;5093624;28;8786;-86
2021/12/10 08:32:46;;;;;;;;;1.00;0.50;;;;;-143.39;100.00;63593.47;5091433;28;8869;-86
2021/12/10 08:35:14;;;;;;;;;3.75;0.75;;;;;-143.39;100.00;63593.47;5097638;28;8790;-86
2021/12/10 08:37:41;;;;;;;;;0.00;0.00;;;;;-143.39;100.00;63593.47;5082655;28;9029;-86
2021/12/10 08:40:10;;;;;;;;;1.00;1.00;;;;;-143.39;100.00;63593.47;5085931;28;8806;-86
2021/12/10 08:42:35;;;;;;;;;1.00;0.00;;;;;-143.39;100.00;63593.47;5088868;28;8772;-86
2021/12/10 08:45:01;;;;;;;;;5.25;1.00;;;;;-143.39;100.00;63593.47;5085828;28;9535;-86
2021/12/10 08:47:26;;;;;;;;;0.75;0.00;;;;;-143.39;100.00;63593.47;5094790;28;8951;-86
2021/12/10 08:49:52;;;;;;;;;0.00;0.00;;;;;-143.39;100.00;63593.47;5082232;28;8784;-86
2021/12/10 08:52:19;;;;;;;;;2.50;0.00;;;;;-143.39;100.00;63593.47;5092428;28;8854;-85
2021/12/10 08:54:45;;;;;;;;;1.00;0.00;;;;;-143.39;100.00;63593.47;5097072;28;8882;-85
2021/12/10 08:57:12;;;;;;;;;2.00;0.00;;;;;-143.39;100.00;63593.47;5112877;28;8915;-85
2021/12/10 08:59:38;;;;;;;;;0.75;0.25;;;;;-143.39;100.00;63593.47;5094340;28;8790;-85
2021/12/10 09:02:07;;;;;;;;;0.00;0.00;;;;;-143.39;100.00;63593.47;5086955;28;8813;-85
2021/12/10 09:04:33;;;;;;;;;2.00;1.00;;;;;-143.39;100.00;63593.47;5094995;28;8811;-84
2021/12/10 09:07:06;;;;;;;;;0.00;0.00;;;;;-143.39;100.00;63593.47;5087144;28;8796;-85
2021/12/10 09:09:34;;;;;;;;;1.00;1.00;;;;;-143.39;100.00;63593.47;5087696;28;9719;-85
2021/12/10 09:12:04;;;;;;;;;1.00;1.00;;;;;-143.39;100.00;63593.47;5109802;28;8891;-85
2021/12/10 09:14:39;;;;;;;;;3.50;0.75;;;;;-143.39;100.00;63593.47;5086516;28;8782;-84
2021/12/10 09:17:05;;;;;;;;;0.75;0.00;;;;;-143.39;100.00;63593.47;5084639;28;8932;-84
2021/12/10 09:19:31;;;;;;;;;0.75;0.50;;;;;-143.39;100.00;63593.47;5091135;28;8810;-85
2021/12/10 09:21:57;;;;;;;;;1.00;1.00;;;;;-143.39;100.00;63593.47;5107832;28;8859;-85
2021/12/10 09:24:24;;;;;;;;;2.25;0.50;;;;;-143.39;100.00;63593.47;5102641;28;8809;-85
2021/12/10 09:26:55;;;;;;;;;2.50;0.50;;;;;-143.39;100.00;63593.47;5096740;28;8823;-85
2021/12/10 09:29:21;;;;;;;;;6.00;1.00;;;;;-143.39;100.00;63593.47;5089879;28;8809;-86
2021/12/10 09:31:47;;;;;;;;;8.50;2.00;;;;;-143.39;100.00;63593.47;5095366;28;8874;-85
2021/12/10 09:34:15;;;;;;;;;2.75;2.00;;;;;-143.39;100.00;63593.47;5082554;28;9751;-86
2021/12/10 09:36:44;;;;;;;;;3.00;2.00;;;;;-143.39;100.00;63593.47;5091817;28;8801;-87
2021/12/10 09:39:17;;;;;;;;;7.00;1.25;;;;;-143.39;100.00;63593.47;5076302;28;8854;-86
2021/12/10 09:41:43;;;;;;;;;2.00;2.00;;;;;-143.39;100.00;63593.47;5087615;28;8796;-87
2021/12/10 09:44:09;;;;;;;;;1.00;1.00;;;;;-143.39;100.00;63593.47;5092997;28;9536;-87
2021/12/10 09:46:36;;;;;;;;;6.00;3.00;;;;;-143.39;100.00;63593.47;5085085;28;8882;-87
2021/12/10 09:49:04;;;;;;;;;8.75;5.00;;;;;-143.39;100.00;63593.47;5083445;28;9727;-87
2021/12/10 09:51:34;;;;;;;;;6.00;2.00;;;;;-143.39;100.00;63593.47;5091666;28;8790;-88
2021/12/10 09:54:06;;;;;;;;;3.50;3.50;;;;;-143.39;100.00;63593.47;5106662;28;8810;-88
2021/12/10 09:56:34;;;;;;;;;6.00;1.00;;;;;-143.39;100.00;63593.47;5086974;28;8831;-88
2021/12/10 09:59:21;;;;;;;;;2.00;0.00;;;;;-143.39;100.00;63593.47;5089791;28;8793;-89
2021/12/10 10:02:03;;;;;;;;;;;;;;;;;;;;;
2021/12/10 10:04:48;;;;;;;;;;;;;;;;;;;;;
2021/12/10 10:07:34;;;;;;;;;;;;;;;;;;;;;
2021/12/10 10:10:50;;;;;;;;;;;;;;;;;;;;;
2021/12/10 10:13:43;;;;;;;;;12.75;2.50;;;;;-143.39;100.00;63593.47;5088385;28;36310;-88
2021/12/10 10:16:27;;;;;;;;;;;;;;;;;;;;;
2021/12/10 10:18:55;;;;;;;;;3.00;1.00;;;;;-143.39;100.00;63593.47;5086428;28;34616;-89
2021/12/10 10:21:27;;;;;;;;;1.75;0.75;;;;;-143.39;100.00;63593.47;5100390;28;8812;-89
2021/12/10 10:23:53;;;;;;;;;5.25;1.25;;;;;-143.39;100.00;63593.47;5081141;28;8802;-89
2021/12/10 12:18:12;;;;;;;;;3.67;3.00;;;;;-143.39;100.00;63593.47;6201426;22;8758;31
2021/12/10 12:20:52;;;;;;;;;7.00;5.25;;;;;-143.39;100.00;63593.47;5036018;28;8868;-91
2021/12/10 12:26:08;;;;;;;;;10.75;7.00;;;;;-143.39;100.00;63593.47;5037772;28;8735;-90
2021/12/10 12:35:57;;;;;;;;;3.25;1.00;;;;;-143.39;100.00;63593.47;4958227;28;9748;-90
2021/12/10 12:38:29;;;;;;;;;2.00;2.00;;;;;-143.39;100.00;63593.47;4974811;28;8789;-87
2021/12/10 12:49:33;;;;;;;;;;;;;;;;;;;;;
2021/12/10 13:02:30;;;;;;;;;4.00;2.00;;;;;-143.39;100.00;63593.47;4935382;29;8809;-86
2021/12/10 13:04:56;;;;;;;;;3.50;2.75;;;;;-143.39;100.00;63593.47;4937597;29;8919;-89
2021/12/10 13:07:24;;;;;;;;;3.00;2.00;;;;;-143.39;100.00;63593.47;4970702;28;8822;-88
2021/12/10 13:09:55;;;;;;;;;3.50;1.75;;;;;-143.39;100.00;63593.47;5056688;28;8816;-89
2021/12/10 13:12:44;;;;;;;;;3.00;3.00;;;;;-143.39;100.00;63593.47;5056798;28;8761;-89
2021/12/10 13:15:28;;;;;;;;;6.00;2.00;;;;;-143.39;100.00;63593.47;5057390;28;8801;-92
2021/12/10 13:18:07;;;;;;;;;2.00;2.00;;;;;-143.39;100.00;63593.47;5055056;28;9729;-90
2021/12/10 13:20:53;;;;;;;;;4.00;3.00;;;;;-143.39;100.00;63593.47;5052913;28;8797;-88
2021/12/10 13:23:25;;;;;;;;;6.00;1.00;;;;;-143.39;100.00;63593.47;5046617;28;8857;-88
2021/12/10 13:26:14;;;;;;;;;1.50;1.00;;;;;-143.39;100.00;63593.47;5055854;28;8749;-89
2021/12/10 13:29:18;;;;;;;;;3.00;3.00;;;;;-143.39;100.00;63593.47;5026613;28;8758;-90
2021/12/10 13:31:44;;;;;;;;;3.25;1.00;;;;;-143.39;100.00;63593.47;5021196;28;8917;-87
2021/12/10 14:05:27;;;;;;;;;1.25;1.00;;;;;-143.39;100.00;63593.47;5355646;22;8847;-89
2021/12/10 14:08:09;;;;;;;;;3.25;3.25;;;;;-143.39;100.00;63593.47;5034571;28;8818;-87
2021/12/10 14:10:43;;;;;;;;;4.00;2.00;;;;;-143.39;100.00;63593.47;5033797;28;8810;-87
2021/12/10 14:13:13;;;;;;;;;3.00;0.00;;;;;-143.39;100.00;63593.47;5036265;28;8834;-87
2021/12/10 14:15:59;;;;;;;;;;;;;;;;;;;;;
2021/12/10 14:18:34;;;;;;;;;3.00;1.50;;;;;-143.39;100.00;63593.47;5031154;28;36821;-87
2021/12/10 14:21:09;;;;;;;;;1.75;1.25;;;;;-143.39;100.00;63593.47;5018229;28;8953;-86
2021/12/10 14:23:40;;;;;;;;;4.00;1.00;;;;;-143.39;100.00;63593.47;5018387;28;8815;-86
2021/12/10 14:26:18;;;;;;;;;2.50;2.00;;;;;-143.39;100.00;63593.47;5036233;28;8819;-86
2021/12/10 14:28:45;;;;;;;;;2.75;2.00;;;;;-143.39;100.00;63593.47;5036765;28;8833;-87
2021/12/10 14:31:28;;;;;;;;;2.00;1.00;;;;;-143.39;100.00;63593.47;5007712;28;8908;-86
2021/12/10 14:34:05;;;;;;;;;2.25;1.00;;;;;-143.39;100.00;63593.47;5024478;28;8778;-86
2021/12/10 14:37:11;;;;;;;;;2.25;0.75;;;;;-143.39;100.00;63593.47;5034829;28;8827;-86